Time;durP1;ratioP1;P1;durP2;ratioP2;P2;SDS_P1;SDS_P2;PMS_P1;PMS_P2;Temp;Humidity;BMP_temperature;BMP_pressure;BME280_temperature;BME280_humidity;BME280_pressure;Samples;Min_cycle;Max_cycle;Signal;HPM_P1;HPM_P2
2021/08/04 00:00:50;;;;;;;2.55;0.65;;;16.00;99.90;;;;;;5057879;28;20477;-72
2021/08/04 00:03:16;;;;;;;0.82;0.43;;;16.00;99.90;;;;;;5067123;28;20025;-73
2021/08/04 00:05:41;;;;;;;0.68;0.45;;;16.00;99.90;;;;;;5066928;28;20025;-72
2021/08/04 00:08:07;;;;;;;1.00;0.38;;;15.90;99.90;;;;;;5066907;28;20045;-72
2021/08/04 00:10:33;;;;;;;0.90;0.55;;;15.90;99.90;;;;;;5082370;28;20381;-74
2021/08/04 00:12:58;;;;;;;0.30;0.30;;;15.90;99.90;;;;;;5065576;28;20029;-74
2021/08/04 00:15:24;;;;;;;0.47;0.45;;;16.00;99.90;;;;;;5066924;28;20057;-72
2021/08/04 00:17:50;;;;;;;1.55;0.68;;;16.00;99.90;;;;;;5065479;28;20040;-73
2021/08/04 00:20:16;;;;;;;1.02;0.70;;;15.80;99.90;;;;;;5049216;28;20036;-72
2021/08/04 00:22:42;;;;;;;0.80;0.55;;;15.90;99.90;;;;;;5045627;28;20100;-72
2021/08/04 00:25:09;;;;;;;3.90;0.75;;;15.90;99.90;;;;;;5045276;28;20060;-73
2021/08/04 00:27:35;;;;;;;1.42;0.40;;;15.80;99.90;;;;;;5046893;28;20037;-74
2021/08/04 00:30:02;;;;;;;0.77;0.40;;;15.80;99.90;;;;;;5046740;28;20032;-74
2021/08/04 00:32:28;;;;;;;1.27;0.50;;;15.80;99.90;;;;;;5046738;28;20018;-73
2021/08/04 00:34:54;;;;;;;0.85;0.65;;;15.80;99.90;;;;;;5045211;28;20105;-73
2021/08/04 00:37:19;;;;;;;0.63;0.50;;;15.80;99.90;;;;;;5046457;28;20026;-73
2021/08/04 00:39:45;;;;;;;1.27;0.57;;;15.80;99.90;;;;;;5045171;28;20025;-74
2021/08/04 00:42:11;;;;;;;3.45;0.80;;;15.70;99.90;;;;;;5046367;28;20030;-74
2021/08/04 00:44:37;;;;;;;1.45;0.63;;;15.80;99.90;;;;;;5045999;28;20026;-74
2021/08/04 00:47:04;;;;;;;1.38;0.70;;;15.70;99.90;;;;;;5046323;28;20026;-75
2021/08/04 00:49:30;;;;;;;1.05;0.80;;;15.70;99.90;;;;;;5046136;28;20073;-74
2021/08/04 00:51:56;;;;;;;1.02;0.60;;;15.60;99.90;;;;;;5046384;28;20085;-74
2021/08/04 00:54:22;;;;;;;1.50;0.60;;;15.60;99.90;;;;;;5044871;28;20040;-75
2021/08/04 00:56:47;;;;;;;1.63;0.57;;;15.60;99.90;;;;;;5044876;28;20029;-74
2021/08/04 00:59:14;;;;;;;0.60;0.52;;;15.60;99.90;;;;;;5046065;28;20064;-75
2021/08/04 01:01:50;;;;;;;0.43;0.30;;;15.70;99.90;;;;;;5044587;28;20533;-74
2021/08/04 01:04:30;;;;;;;3.97;0.77;;;15.50;99.90;;;;;;5046030;28;20089;-76
2021/08/04 01:07:06;;;;;;;0.63;0.40;;;15.50;99.90;;;;;;5044684;28;20498;-73
2021/08/04 01:10:05;;;;;;;0.73;0.50;;;15.50;99.90;;;;;;5045888;28;20490;-75
2021/08/04 01:12:55;;;;;;;0.98;0.70;;;15.40;99.90;;;;;;5053740;28;20049;-74
2021/08/04 01:15:23;;;;;;;0.88;0.25;;;15.40;99.90;;;;;;5045220;28;20041;-74
2021/08/04 01:17:51;;;;;;;1.00;0.50;;;15.40;99.90;;;;;;5046001;28;20032;-75
2021/08/04 01:20:25;;;;;;;1.17;0.70;;;15.40;99.90;;;;;;5045607;28;20108;-75
2021/08/04 01:22:56;;;;;;;0.85;0.50;;;15.30;99.90;;;;;;5045779;28;20025;-74
2021/08/04 01:25:30;;;;;;;0.65;0.40;;;15.30;99.90;;;;;;5045686;28;20045;-74
2021/08/04 01:28:18;;;;;;;2.35;0.80;;;15.30;99.90;;;;;;5045829;28;20534;-73
2021/08/04 01:30:46;;;;;;;0.65;0.32;;;15.30;99.90;;;;;;5045273;28;20053;-73
2021/08/04 01:33:14;;;;;;;0.57;0.43;;;15.30;99.90;;;;;;5044100;28;20414;-74
2021/08/04 01:35:46;;;;;;;1.92;0.60;;;15.30;99.90;;;;;;5044055;28;20097;-74
2021/08/04 01:38:15;;;;;;;1.00;0.70;;;15.30;99.90;;;;;;5044116;28;20071;-75
2021/08/04 01:40:46;;;;;;;0.52;0.40;;;15.30;99.90;;;;;;5045266;28;20025;-74
2021/08/04 01:43:12;;;;;;;2.25;0.82;;;15.20;99.90;;;;;;5043894;28;20030;-74
2021/08/04 01:45:39;;;;;;;0.55;0.55;;;15.20;99.90;;;;;;5045239;28;20049;-74
2021/08/04 01:48:09;;;;;;;0.52;0.40;;;15.30;99.90;;;;;;5043966;28;20096;-75
2021/08/04 01:50:36;;;;;;;1.52;0.80;;;15.20;99.90;;;;;;5045069;28;20108;-74
2021/08/04 01:53:03;;;;;;;0.40;0.40;;;15.20;99.90;;;;;;5045104;28;20009;-74
2021/08/04 01:55:30;;;;;;;1.75;0.68;;;15.30;99.90;;;;;;5044467;28;20057;-76
2021/08/04 01:57:57;;;;;;;0.90;0.40;;;15.20;99.90;;;;;;5043957;28;20021;-73
2021/08/04 02:00:22;;;;;;;1.58;0.60;;;15.20;99.90;;;;;;5045307;28;20029;-74
2021/08/04 02:02:48;;;;;;;0.45;0.40;;;15.20;99.90;;;;;;5045033;28;20048;-73
2021/08/04 02:05:14;;;;;;;0.57;0.35;;;15.20;99.90;;;;;;5060205;28;20037;-73
2021/08/04 02:08:01;;;;;;;1.15;0.60;;;15.20;99.90;;;;;;5044660;28;20038;-74
2021/08/04 02:10:38;;;;;;;2.50;0.75;;;15.20;99.90;;;;;;5044864;28;20029;-75
2021/08/04 02:13:27;;;;;;;1.17;0.60;;;15.10;99.90;;;;;;5043664;28;20057;-73
2021/08/04 02:16:00;;;;;;;1.02;0.52;;;15.20;99.90;;;;;;5044828;28;20080;-75
2021/08/04 02:18:30;;;;;;;1.48;0.95;;;15.20;99.90;;;;;;5044947;28;20052;-75
2021/08/04 02:21:01;;;;;;;2.92;1.00;;;15.20;99.90;;;;;;5043767;28;20060;-75
2021/08/04 02:23:34;;;;;;;1.50;0.90;;;15.20;99.90;;;;;;5044805;28;20033;-75
2021/08/04 02:26:12;;;;;;;1.13;0.70;;;15.10;99.90;;;;;;5044944;28;20028;-74
2021/08/04 02:28:41;;;;;;;1.83;0.98;;;15.10;99.90;;;;;;5044685;28;20042;-76
2021/08/04 02:31:11;;;;;;;1.27;0.57;;;15.20;99.90;;;;;;5044649;28;20026;-76
2021/08/04 02:33:37;;;;;;;1.85;1.30;;;15.00;99.90;;;;;;5043215;28;20025;-75
2021/08/04 02:36:03;;;;;;;0.93;0.52;;;15.10;99.90;;;;;;5044674;28;20045;-75
2021/08/04 02:38:30;;;;;;;2.05;0.98;;;15.00;99.90;;;;;;5044845;28;20029;-76
2021/08/04 02:40:56;;;;;;;0.50;0.50;;;15.00;99.90;;;;;;5044675;28;20040;-75
2021/08/04 02:43:22;;;;;;;10.45;0.98;;;14.80;99.90;;;;;;5043159;28;20029;-73
2021/08/04 02:45:49;;;;;;;0.93;0.70;;;14.90;99.90;;;;;;5044399;28;20034;-74
2021/08/04 02:48:17;;;;;;;1.27;0.80;;;14.90;99.90;;;;;;5044271;28;20084;-76
2021/08/04 02:50:50;;;;;;;0.90;0.60;;;14.90;99.90;;;;;;5042936;28;20021;-74
2021/08/04 02:53:17;;;;;;;2.80;0.98;;;14.90;99.90;;;;;;5044436;28;20040;-72
2021/08/04 02:55:43;;;;;;;2.20;1.02;;;14.90;99.90;;;;;;5044461;28;20025;-73
2021/08/04 02:58:12;;;;;;;2.70;1.33;;;14.80;99.90;;;;;;5043014;28;20114;-75
2021/08/04 03:00:38;;;;;;;5.03;0.90;;;14.90;99.90;;;;;;5043131;28;20474;-72
2021/08/04 03:03:04;;;;;;;1.15;0.95;;;14.90;99.90;;;;;;5044598;28;20125;-73
2021/08/04 03:05:30;;;;;;;1.10;0.77;;;15.00;99.90;;;;;;5044784;28;20492;-73
2021/08/04 03:07:56;;;;;;;2.42;1.00;;;14.80;99.90;;;;;;5048106;28;20048;-76
2021/08/04 03:10:23;;;;;;;1.85;0.80;;;14.90;99.90;;;;;;5046651;28;20026;-75
2021/08/04 03:12:48;;;;;;;2.05;1.00;;;14.90;99.90;;;;;;5047080;28;20033;-75
2021/08/04 03:15:14;;;;;;;3.90;1.55;;;15.00;99.90;;;;;;5047593;28;20109;-75
2021/08/04 03:17:39;;;;;;;1.10;0.80;;;14.90;99.90;;;;;;5048255;28;20057;-74
2021/08/04 03:20:06;;;;;;;8.13;0.77;;;14.90;99.90;;;;;;5046622;28;20045;-75
2021/08/04 03:22:31;;;;;;;1.27;0.90;;;14.90;99.90;;;;;;5047990;28;20072;-74
2021/08/04 03:24:58;;;;;;;1.00;0.70;;;14.90;99.90;;;;;;5048173;28;20029;-73
2021/08/04 03:27:23;;;;;;;1.50;0.93;;;14.90;99.90;;;;;;5046454;28;20026;-76
2021/08/04 03:29:49;;;;;;;2.67;0.70;;;14.90;99.90;;;;;;5046152;28;20493;-75
2021/08/04 03:32:16;;;;;;;1.35;0.93;;;14.90;99.90;;;;;;5047840;28;20021;-73
2021/08/04 03:34:41;;;;;;;2.03;0.93;;;14.90;99.90;;;;;;5047519;28;20029;-74
2021/08/04 03:37:07;;;;;;;2.13;1.00;;;14.90;99.90;;;;;;5046164;28;20029;-74
2021/08/04 03:39:33;;;;;;;1.70;0.68;;;14.90;99.90;;;;;;5046519;28;20052;-76
2021/08/04 03:41:58;;;;;;;1.23;0.85;;;14.90;99.90;;;;;;5047845;28;20057;-73
2021/08/04 03:44:24;;;;;;;0.95;0.55;;;14.90;99.90;;;;;;5047453;28;20100;-73
2021/08/04 03:46:49;;;;;;;1.65;0.93;;;14.90;99.90;;;;;;5047662;28;20148;-73
2021/08/04 03:49:16;;;;;;;1.30;0.98;;;14.90;99.90;;;;;;5047290;28;20061;-73
2021/08/04 03:51:42;;;;;;;1.25;0.82;;;14.90;99.90;;;;;;5047531;28;20034;-74
2021/08/04 03:54:08;;;;;;;0.73;0.50;;;14.80;99.90;;;;;;5045843;28;20055;-74
2021/08/04 03:56:33;;;;;;;1.25;0.70;;;14.80;99.90;;;;;;5046128;28;20021;-75
2021/08/04 03:59:00;;;;;;;1.80;0.80;;;14.80;99.90;;;;;;5045989;28;20109;-74
2021/08/04 04:01:26;;;;;;;1.60;0.90;;;14.80;99.90;;;;;;5047408;28;20037;-74
2021/08/04 04:03:52;;;;;;;1.55;1.00;;;14.90;99.90;;;;;;5047098;28;20033;-74
2021/08/04 04:06:17;;;;;;;1.15;0.60;;;14.80;99.90;;;;;;5047049;28;20052;-75
2021/08/04 04:08:43;;;;;;;1.52;0.80;;;14.90;99.90;;;;;;5047002;28;20100;-73
2021/08/04 04:11:10;;;;;;;0.90;0.60;;;15.00;99.90;;;;;;5047066;28;20389;-74
2021/08/04 04:13:36;;;;;;;1.50;0.50;;;14.80;99.90;;;;;;5045778;28;20030;-74
2021/08/04 04:16:07;;;;;;;3.47;0.93;;;14.90;99.90;;;;;;5045757;28;20045;-74
2021/08/04 04:18:33;;;;;;;2.70;0.70;;;14.90;99.90;;;;;;5045100;28;20029;-76
2021/08/04 04:21:00;;;;;;;1.80;0.68;;;14.90;99.90;;;;;;5045816;28;20098;-75
2021/08/04 04:23:25;;;;;;;1.45;1.00;;;14.90;99.90;;;;;;5046992;28;20536;-75
2021/08/04 04:25:51;;;;;;;1.13;0.70;;;14.90;99.90;;;;;;5045522;28;20089;-76
2021/08/04 04:28:16;;;;;;;1.15;0.80;;;14.90;99.90;;;;;;5045241;28;20025;-74
2021/08/04 04:30:42;;;;;;;1.33;0.90;;;14.90;99.90;;;;;;5045294;28;20025;-75
2021/08/04 04:33:08;;;;;;;0.93;0.60;;;14.90;99.90;;;;;;5046806;28;20029;-74
2021/08/04 04:35:33;;;;;;;4.65;1.00;;;14.80;99.90;;;;;;5046616;28;20025;-75
2021/08/04 04:37:59;;;;;;;1.48;0.80;;;14.80;99.90;;;;;;5045284;28;20026;-75
2021/08/04 04:40:26;;;;;;;4.32;1.00;;;14.90;99.90;;;;;;5046634;28;20036;-75
2021/08/04 04:42:51;;;;;;;5.43;0.73;;;14.90;99.90;;;;;;5045194;28;20763;-74
2021/08/04 04:45:17;;;;;;;0.82;0.60;;;14.90;99.90;;;;;;5045214;28;20758;-74
2021/08/04 04:47:42;;;;;;;1.70;0.75;;;14.90;99.90;;;;;;5046241;28;20037;-74
2021/08/04 04:50:08;;;;;;;2.08;1.00;;;14.80;99.90;;;;;;5044706;28;20029;-75
2021/08/04 04:52:40;;;;;;;1.13;0.68;;;14.90;99.90;;;;;;5053464;28;20535;-75
2021/08/04 04:55:06;;;;;;;1.42;0.98;;;14.90;99.90;;;;;;5062412;28;20021;-74
2021/08/04 04:57:33;;;;;;;1.48;0.90;;;14.90;99.90;;;;;;5056585;28;20037;-75
2021/08/04 05:00:09;;;;;;;0.88;0.70;;;14.90;99.90;;;;;;5046383;28;20068;-75
2021/08/04 05:02:38;;;;;;;1.30;0.38;;;14.90;99.90;;;;;;5046383;28;20072;-77
2021/08/04 05:05:07;;;;;;;0.43;0.40;;;14.90;99.90;;;;;;5045631;28;20053;-76
2021/08/04 05:07:33;;;;;;;1.05;0.75;;;14.90;99.90;;;;;;5043104;28;20037;-74
2021/08/04 05:09:58;;;;;;;1.08;0.70;;;14.90;99.90;;;;;;5045646;28;20040;-73
2021/08/04 05:12:24;;;;;;;1.00;0.82;;;14.90;99.90;;;;;;5045909;28;20037;-72
2021/08/04 05:14:50;;;;;;;1.05;0.70;;;14.90;99.90;;;;;;5044444;28;20025;-73
2021/08/04 05:17:15;;;;;;;2.83;0.90;;;14.90;99.90;;;;;;5043834;28;20472;-73
2021/08/04 05:19:41;;;;;;;0.95;0.50;;;14.90;99.90;;;;;;5044304;28;20049;-73
2021/08/04 05:22:10;;;;;;;0.82;0.38;;;14.90;99.90;;;;;;5045225;28;20055;-74
2021/08/04 05:24:36;;;;;;;1.30;0.60;;;14.90;99.90;;;;;;5044315;28;20410;-71
2021/08/04 05:27:02;;;;;;;0.90;0.63;;;14.90;99.90;;;;;;5044426;28;20039;-71
2021/08/04 05:29:28;;;;;;;1.38;0.47;;;14.90;99.90;;;;;;5043143;28;20113;-74
2021/08/04 05:31:55;;;;;;;0.45;0.40;;;15.00;99.90;;;;;;5044331;28;20037;-73
2021/08/04 05:34:20;;;;;;;1.48;0.80;;;14.90;99.90;;;;;;5045294;28;20044;-70
2021/08/04 05:36:46;;;;;;;1.35;0.80;;;15.00;99.90;;;;;;5044100;28;20021;-73
2021/08/04 05:39:11;;;;;;;1.98;1.58;;;15.00;99.90;;;;;;5044047;28;20032;-70
2021/08/04 05:41:42;;;;;;;1.45;0.90;;;15.00;99.90;;;;;;5045271;28;20025;-73
2021/08/04 05:44:08;;;;;;;2.00;0.90;;;15.00;99.90;;;;;;5060790;28;20095;-73
2021/08/04 05:46:33;;;;;;;3.00;0.68;;;15.00;99.90;;;;;;5044169;28;20021;-74
2021/08/04 05:49:03;;;;;;;0.95;0.63;;;15.00;99.90;;;;;;5045295;28;20046;-72
2021/08/04 05:51:28;;;;;;;1.10;0.70;;;15.00;99.90;;;;;;5045277;28;20057;-74
2021/08/04 05:53:54;;;;;;;0.75;0.60;;;15.00;99.90;;;;;;5045317;28;20034;-73
2021/08/04 05:56:19;;;;;;;1.42;0.70;;;15.00;99.90;;;;;;5043730;28;20128;-71
2021/08/04 05:58:45;;;;;;;1.65;0.80;;;15.00;99.90;;;;;;5045135;28;20036;-72
2021/08/04 06:01:14;;;;;;;1.08;0.85;;;15.00;99.90;;;;;;5043615;28;20030;-74
2021/08/04 06:03:39;;;;;;;1.05;0.63;;;15.00;99.90;;;;;;5043633;28;20059;-72
2021/08/04 06:06:05;;;;;;;0.80;0.35;;;15.10;99.90;;;;;;5043923;28;20049;-74
2021/08/04 06:08:31;;;;;;;2.25;0.90;;;15.00;99.90;;;;;;5044870;28;20042;-71
2021/08/04 06:10:57;;;;;;;1.60;0.55;;;15.10;99.90;;;;;;5044919;28;20040;-72
2021/08/04 06:13:23;;;;;;;1.13;0.77;;;15.10;99.90;;;;;;5043520;28;20044;-72
2021/08/04 06:15:50;;;;;;;1.17;0.88;;;15.00;99.90;;;;;;5044450;28;20140;-72
2021/08/04 06:18:16;;;;;;;1.67;0.85;;;15.00;99.90;;;;;;5044602;28;20030;-73
2021/08/04 06:20:42;;;;;;;1.90;0.50;;;15.10;99.90;;;;;;5054110;28;20040;-74
2021/08/04 06:23:07;;;;;;;3.80;1.08;;;15.10;99.90;;;;;;5063325;28;20025;-75
2021/08/04 06:25:33;;;;;;;0.80;0.52;;;15.00;99.90;;;;;;5064758;28;20028;-74
2021/08/04 06:27:59;;;;;;;0.75;0.50;;;15.10;99.90;;;;;;5063300;28;20041;-74
2021/08/04 06:30:28;;;;;;;2.30;0.80;;;15.10;99.90;;;;;;5064367;28;20029;-74
2021/08/04 06:32:53;;;;;;;4.97;0.80;;;15.10;99.90;;;;;;5064823;28;20084;-74
2021/08/04 06:35:19;;;;;;;0.63;0.50;;;15.10;99.90;;;;;;5061043;28;20095;-73
2021/08/04 06:37:45;;;;;;;1.15;0.70;;;15.00;99.90;;;;;;5043218;28;20048;-73
2021/08/04 06:40:11;;;;;;;1.20;0.60;;;15.00;99.90;;;;;;5044505;28;20026;-74
2021/08/04 06:42:37;;;;;;;0.77;0.63;;;15.00;99.90;;;;;;5047282;28;20056;-75
2021/08/04 06:45:03;;;;;;;1.40;0.77;;;15.00;99.90;;;;;;5048681;28;20026;-74
2021/08/04 06:47:29;;;;;;;0.75;0.47;;;15.00;99.90;;;;;;5048653;28;20032;-74
2021/08/04 06:49:54;;;;;;;0.32;0.25;;;15.20;99.90;;;;;;5048351;28;20496;-75
2021/08/04 06:52:20;;;;;;;3.05;0.52;;;15.10;99.90;;;;;;5048594;28;20025;-74
2021/08/04 06:54:45;;;;;;;1.35;0.75;;;15.10;99.90;;;;;;5048613;28;20049;-74
2021/08/04 06:57:11;;;;;;;1.38;0.60;;;15.10;99.90;;;;;;5047052;28;20025;-75
2021/08/04 06:59:36;;;;;;;2.97;1.08;;;15.20;99.90;;;;;;5048196;28;20033;-74
2021/08/04 07:02:02;;;;;;;1.17;0.68;;;15.30;99.90;;;;;;5063819;28;20025;-76
2021/08/04 07:04:35;;;;;;;1.05;0.45;;;15.30;99.90;;;;;;5048381;28;20029;-74
2021/08/04 07:07:03;;;;;;;1.02;0.45;;;15.30;99.90;;;;;;5063042;28;20056;-74
2021/08/04 07:09:31;;;;;;;1.58;0.90;;;15.40;99.90;;;;;;5046830;28;20128;-73
2021/08/04 07:11:57;;;;;;;3.45;0.52;;;15.50;99.90;;;;;;5050657;28;20029;-76
2021/08/04 07:14:23;;;;;;;1.35;0.80;;;15.50;99.90;;;;;;5067911;28;20092;-76
2021/08/04 07:16:48;;;;;;;3.22;1.15;;;15.50;99.90;;;;;;5066224;28;20509;-72
2021/08/04 07:19:15;;;;;;;0.70;0.43;;;15.60;99.90;;;;;;5067882;28;20021;-75
2021/08/04 07:21:41;;;;;;;1.05;0.70;;;15.60;99.90;;;;;;5067943;28;20025;-75
2021/08/04 07:24:08;;;;;;;1.17;0.40;;;15.60;99.90;;;;;;5067751;28;20034;-77
2021/08/04 07:26:38;;;;;;;0.68;0.43;;;15.70;99.90;;;;;;5067890;28;20032;-75
2021/08/04 07:29:04;;;;;;;2.00;0.68;;;15.80;99.90;;;;;;5066572;28;20037;-74
2021/08/04 07:31:30;;;;;;;0.65;0.40;;;15.80;99.90;;;;;;5066736;28;20055;-75
2021/08/04 07:33:56;;;;;;;1.25;0.75;;;15.80;99.90;;;;;;5067800;28;20040;-76
2021/08/04 07:36:22;;;;;;;2.85;1.10;;;15.80;99.90;;;;;;5067616;28;20077;-78
2021/08/04 07:38:51;;;;;;;2.13;0.73;;;15.80;99.90;;;;;;5067497;28;20039;-79
2021/08/04 07:41:16;;;;;;;1.05;0.63;;;15.80;99.90;;;;;;5067520;28;20029;-74
2021/08/04 07:43:43;;;;;;;0.52;0.47;;;15.80;99.90;;;;;;5066204;28;20020;-76
2021/08/04 07:46:08;;;;;;;0.90;0.68;;;15.80;99.90;;;;;;5066028;28;20060;-76
2021/08/04 07:48:35;;;;;;;1.25;0.47;;;15.80;99.90;;;;;;5065943;28;20474;-75
2021/08/04 07:51:02;;;;;;;0.88;0.68;;;15.90;99.90;;;;;;5066030;28;20029;-76
2021/08/04 07:53:29;;;;;;;1.85;1.00;;;15.90;99.90;;;;;;5066578;28;20021;-74
2021/08/04 07:55:55;;;;;;;0.80;0.68;;;16.00;99.90;;;;;;5067174;28;20025;-77
2021/08/04 07:58:21;;;;;;;2.70;0.70;;;16.00;99.90;;;;;;5064261;28;20048;-77
2021/08/04 08:00:47;;;;;;;0.77;0.50;;;16.10;99.90;;;;;;5065378;28;20032;-74
2021/08/04 08:03:12;;;;;;;0.88;0.50;;;16.10;99.90;;;;;;5066730;28;20080;-76
2021/08/04 08:05:38;;;;;;;0.55;0.45;;;16.20;99.90;;;;;;5065352;28;20025;-74
2021/08/04 08:08:12;;;;;;;1.02;0.73;;;16.30;99.90;;;;;;5066589;28;20041;-79
2021/08/04 08:10:40;;;;;;;1.13;0.52;;;16.30;99.90;;;;;;5065528;28;20025;-74
2021/08/04 08:13:07;;;;;;;0.75;0.50;;;16.40;99.90;;;;;;5066966;28;20563;-73
2021/08/04 08:15:37;;;;;;;0.82;0.45;;;16.50;99.90;;;;;;5065448;28;20055;-75
2021/08/04 08:18:09;;;;;;;1.33;0.88;;;16.50;99.90;;;;;;5067219;28;20043;-76
2021/08/04 08:20:36;;;;;;;2.20;1.00;;;16.50;99.90;;;;;;5066821;28;20036;-77
2021/08/04 08:23:03;;;;;;;1.85;0.60;;;16.50;99.90;;;;;;5065459;28;20470;-78
2021/08/04 08:25:29;;;;;;;2.42;0.80;;;16.60;99.90;;;;;;5065526;28;20021;-78
2021/08/04 08:27:54;;;;;;;1.58;0.90;;;16.60;99.90;;;;;;5065420;28;20049;-77
2021/08/04 08:30:20;;;;;;;1.45;0.63;;;16.60;99.90;;;;;;5065244;28;20073;-78
2021/08/04 08:32:48;;;;;;;1.35;0.88;;;16.60;99.90;;;;;;5065322;28;20397;-78
2021/08/04 08:35:16;;;;;;;1.45;0.80;;;16.60;99.90;;;;;;5066466;28;20017;-79
2021/08/04 08:37:42;;;;;;;0.70;0.60;;;16.70;99.90;;;;;;5065252;28;20032;-75
2021/08/04 08:40:09;;;;;;;0.70;0.63;;;16.70;99.90;;;;;;5065116;28;20036;-75
2021/08/04 08:42:36;;;;;;;0.57;0.40;;;16.70;99.90;;;;;;5066561;28;20035;-76
2021/08/04 08:45:02;;;;;;;0.90;0.80;;;16.70;99.90;;;;;;5065178;28;20021;-75
2021/08/04 08:47:32;;;;;;;1.20;0.80;;;16.80;99.90;;;;;;5066379;28;20021;-77
2021/08/04 08:50:00;;;;;;;2.55;0.88;;;16.80;99.90;;;;;;5065090;28;20057;-76
2021/08/04 08:52:26;;;;;;;1.55;0.80;;;16.80;99.90;;;;;;5066354;28;20425;-77
2021/08/04 08:54:51;;;;;;;1.70;0.50;;;16.80;99.90;;;;;;5064726;28;20021;-76
2021/08/04 08:57:17;;;;;;;4.15;1.05;;;16.80;99.90;;;;;;5064881;28;20025;-76
2021/08/04 08:59:43;;;;;;;0.70;0.50;;;16.90;99.90;;;;;;5066028;28;20021;-78
2021/08/04 09:02:09;;;;;;;1.55;0.80;;;16.80;99.90;;;;;;5066008;28;20041;-77
2021/08/04 09:04:37;;;;;;;1.15;0.65;;;16.80;99.90;;;;;;5064698;28;20021;-77
2021/08/04 09:07:03;;;;;;;1.50;0.80;;;16.80;99.90;;;;;;5066040;28;20066;-78
2021/08/04 09:09:32;;;;;;;0.82;0.60;;;16.80;99.90;;;;;;5064609;28;20048;-77
2021/08/04 09:12:10;;;;;;;0.55;0.43;;;16.80;99.90;;;;;;5065840;28;20037;-79
2021/08/04 09:14:41;;;;;;;1.10;0.50;;;16.80;99.90;;;;;;5065766;28;20028;-75
2021/08/04 09:17:17;;;;;;;0.52;0.50;;;16.80;99.90;;;;;;5064342;28;20063;-77
2021/08/04 09:19:50;;;;;;;1.75;0.85;;;16.80;99.90;;;;;;5065653;28;20035;-75
2021/08/04 09:22:22;;;;;;;0.40;0.35;;;16.70;99.90;;;;;;5064340;28;20409;-75
2021/08/04 09:24:55;;;;;;;1.20;0.70;;;16.80;99.90;;;;;;5065714;28;20021;-77
2021/08/04 09:27:37;;;;;;;0.98;0.70;;;16.70;99.90;;;;;;5065290;28;20794;-76
2021/08/04 09:30:03;;;;;;;1.40;0.73;;;16.80;99.90;;;;;;5064169;28;20103;-76
2021/08/04 09:32:31;;;;;;;1.25;0.63;;;16.80;99.90;;;;;;5065712;28;20025;-76
2021/08/04 09:35:15;;;;;;;2.75;0.95;;;16.80;99.90;;;;;;5065539;28;20036;-78
2021/08/04 09:37:42;;;;;;;1.50;0.90;;;16.90;99.90;;;;;;5065555;28;20021;-75
2021/08/04 09:40:09;;;;;;;1.17;0.85;;;17.00;99.90;;;;;;5063854;28;20029;-74
2021/08/04 09:42:52;;;;;;;1.02;0.73;;;17.00;99.90;;;;;;5064225;28;20029;-76
2021/08/04 09:45:40;;;;;;;1.02;0.68;;;17.20;99.90;;;;;;5065460;28;20571;-74
2021/08/04 09:48:08;;;;;;;4.93;0.60;;;17.20;99.90;;;;;;5052079;28;20055;-77
2021/08/04 09:50:50;;;;;;;0.93;0.45;;;17.30;99.90;;;;;;5065133;28;20029;-78
2021/08/04 09:53:35;;;;;;;11.25;0.82;;;17.20;99.90;;;;;;5063980;28;20029;-75
2021/08/04 09:56:18;;;;;;;1.30;0.77;;;17.30;99.90;;;;;;5063896;28;20078;-74
2021/08/04 09:58:53;;;;;;;1.90;0.65;;;17.20;99.90;;;;;;5063591;28;20102;-73
2021/08/04 10:01:41;;;;;;;0.95;0.73;;;17.40;99.90;;;;;;5064517;28;20029;-74
2021/08/04 10:04:10;;;;;;;1.42;0.57;;;17.30;99.90;;;;;;5066594;28;20028;-75
2021/08/04 10:06:40;;;;;;;1.20;0.75;;;17.30;99.90;;;;;;5065239;28;20052;-74
2021/08/04 10:09:09;;;;;;;0.80;0.52;;;17.30;99.90;;;;;;5065112;28;20060;-75
2021/08/04 10:11:51;;;;;;;2.35;0.80;;;17.30;99.90;;;;;;5065078;28;20040;-75
2021/08/04 10:14:26;;;;;;;7.03;0.88;;;17.30;99.90;;;;;;5064442;28;20132;-73
2021/08/04 10:16:52;;;;;;;0.88;0.60;;;17.30;99.90;;;;;;5064153;28;20057;-73
2021/08/04 10:19:19;;;;;;;1.13;0.80;;;17.30;99.90;;;;;;5063269;28;20036;-73
2021/08/04 10:21:50;;;;;;;1.67;0.90;;;17.30;99.90;;;;;;5064665;28;20028;-74
2021/08/04 10:24:16;;;;;;;1.10;0.77;;;17.20;99.90;;;;;;5063223;28;20490;-73
2021/08/04 10:26:42;;;;;;;3.95;0.93;;;17.20;99.90;;;;;;5064778;28;20041;-74
2021/08/04 10:29:09;;;;;;;2.13;1.02;;;17.10;99.90;;;;;;5063387;28;20048;-72
2021/08/04 10:31:39;;;;;;;1.50;0.80;;;17.20;99.90;;;;;;5064891;28;20029;-75
2021/08/04 10:34:06;;;;;;;4.75;0.93;;;17.20;99.90;;;;;;5063031;28;20025;-75
2021/08/04 10:36:38;;;;;;;2.80;0.77;;;17.20;99.90;;;;;;5064541;28;20501;-76
2021/08/04 10:39:15;;;;;;;1.67;0.93;;;17.30;99.90;;;;;;5063495;28;20029;-74
2021/08/04 10:42:15;;;;;;;2.25;1.00;;;17.30;99.90;;;;;;5064631;28;20037;-73
2021/08/04 10:44:43;;;;;;;5.22;0.85;;;17.40;99.90;;;;;;5064415;28;20036;-75
2021/08/04 10:47:26;;;;;;;1.30;0.82;;;17.40;99.90;;;;;;5079847;28;20037;-74
2021/08/04 10:50:12;;;;;;;0.60;0.50;;;17.50;99.90;;;;;;5062985;28;20040;-74
2021/08/04 10:52:58;;;;;;;3.20;0.80;;;17.50;99.90;;;;;;5063101;28;20032;-73
2021/08/04 10:56:01;;;;;;;3.10;1.10;;;17.50;99.90;;;;;;5064428;28;20036;-72
2021/08/04 10:58:27;;;;;;;0.80;0.32;;;17.60;99.90;;;;;;5060133;28;20033;-74
2021/08/04 11:01:32;;;;;;;1.83;1.02;;;17.70;99.90;;;;;;5064485;28;20049;-75
2021/08/04 11:03:57;;;;;;;1.55;0.93;;;17.80;99.90;;;;;;5063317;28;20033;-74
2021/08/04 11:06:23;;;;;;;2.08;0.55;;;17.80;99.90;;;;;;5062990;28;20087;-74
2021/08/04 11:09:12;;;;;;;2.30;1.05;;;17.80;99.90;;;;;;5064040;28;20561;-75
2021/08/04 11:11:55;;;;;;;2.30;1.15;;;17.90;99.90;;;;;;5063925;28;20028;-73
2021/08/04 11:14:45;;;;;;;6.70;1.00;;;18.00;99.90;;;;;;5064034;28;20033;-74
2021/08/04 11:17:19;;;;;;;1.23;0.68;;;18.10;99.90;;;;;;5064180;28;20053;-74
2021/08/04 11:20:01;;;;;;;0.52;0.52;;;18.10;99.90;;;;;;5062779;28;20051;-73
2021/08/04 11:22:34;;;;;;;1.00;0.70;;;18.20;99.90;;;;;;5064264;28;20029;-75
2021/08/04 11:25:21;;;;;;;2.92;1.10;;;18.30;99.90;;;;;;5062760;28;20036;-74
2021/08/04 11:27:55;;;;;;;0.82;0.70;;;18.40;99.90;;;;;;5063309;28;20069;-75
2021/08/04 11:30:35;;;;;;;2.10;0.98;;;18.50;99.90;;;;;;5067942;28;20029;-73
2021/08/04 11:33:19;;;;;;;2.25;0.93;;;18.50;99.90;;;;;;5066784;28;20534;-73
2021/08/04 11:35:58;;;;;;;1.00;0.80;;;18.60;99.90;;;;;;5066415;28;20424;-74
2021/08/04 11:38:38;;;;;;;1.75;0.80;;;18.70;99.90;;;;;;5067633;28;20048;-73
2021/08/04 11:41:22;;;;;;;1.17;0.82;;;18.90;99.90;;;;;;5067810;28;20097;-73
2021/08/04 11:43:50;;;;;;;1.55;0.80;;;19.20;99.90;;;;;;5067538;28;20077;-77
2021/08/04 11:46:36;;;;;;;2.53;0.93;;;19.50;99.90;;;;;;5067473;28;20032;-73
2021/08/04 11:49:06;;;;;;;2.85;0.93;;;19.80;99.90;;;;;;5065819;28;20163;-74
2021/08/04 11:51:50;;;;;;;0.88;0.55;;;20.00;99.90;;;;;;5066133;28;20071;-72
2021/08/04 11:54:47;;;;;;;2.42;0.95;;;20.20;99.90;;;;;;5067270;28;20103;-74
2021/08/04 11:57:33;;;;;;;1.55;0.93;;;20.40;99.90;;;;;;5070768;28;20029;-74
2021/08/04 12:00:04;;;;;;;1.77;0.70;;;20.50;99.90;;;;;;5065692;28;20025;-74
2021/08/04 12:02:37;;;;;;;2.15;0.88;;;20.60;99.90;;;;;;5066033;28;20021;-71
2021/08/04 12:05:07;;;;;;;1.47;0.83;;;20.70;99.90;;;;;;5067155;28;20036;-74
2021/08/04 12:07:38;;;;;;;2.15;0.85;;;20.90;99.90;;;;;;5066739;28;20025;-73
2021/08/04 12:10:11;;;;;;;2.40;1.15;;;21.20;99.90;;;;;;5066663;28;20056;-76
2021/08/04 12:12:38;;;;;;;0.70;0.52;;;21.50;99.90;;;;;;5067082;28;20026;-74
2021/08/04 12:15:13;;;;;;;0.73;0.52;;;21.90;99.90;;;;;;5065539;28;20033;-74
2021/08/04 12:17:39;;;;;;;1.88;0.80;;;22.10;99.90;;;;;;5066799;28;20028;-73
2021/08/04 12:20:22;;;;;;;3.33;0.60;;;22.40;99.90;;;;;;5066892;28;20545;-74
2021/08/04 12:23:06;;;;;;;1.50;0.70;;;22.80;99.90;;;;;;5066782;28;20075;-74
2021/08/04 12:25:35;;;;;;;0.60;0.47;;;23.10;99.90;;;;;;5065394;28;20536;-75
2021/08/04 12:28:03;;;;;;;0.45;0.38;;;23.30;99.90;;;;;;5066694;28;20045;-74
2021/08/04 12:30:57;;;;;;;2.22;0.70;;;23.50;99.90;;;;;;5064685;28;20447;-75
2021/08/04 12:33:37;;;;;;;2.83;0.50;;;23.80;99.90;;;;;;5064964;28;20037;-75
2021/08/04 12:36:10;;;;;;;1.08;0.38;;;24.00;99.90;;;;;;5066875;28;20029;-73
2021/08/04 12:38:43;;;;;;;2.53;0.70;;;24.30;99.90;;;;;;5066138;28;20029;-76
2021/08/04 12:41:10;;;;;;;0.35;0.30;;;24.40;99.90;;;;;;5066528;28;20036;-72
2021/08/04 12:43:40;;;;;;;1.20;0.75;;;24.60;99.90;;;;;;5065223;28;20021;-74
2021/08/04 12:46:09;;;;;;;0.88;0.43;;;24.70;99.90;;;;;;5065061;28;20036;-73
2021/08/04 12:48:43;;;;;;;5.88;0.50;;;24.80;99.90;;;;;;5066276;28;20036;-72
2021/08/04 12:51:18;;;;;;;1.50;0.30;;;25.00;99.90;;;;;;5066185;28;20035;-73
2021/08/04 12:53:53;;;;;;;1.10;0.50;;;25.20;99.90;;;;;;5081959;28;20375;-72
2021/08/04 12:56:19;;;;;;;1.02;0.45;;;25.40;99.90;;;;;;5064724;28;20029;-72
2021/08/04 12:59:00;;;;;;;1.27;0.63;;;25.50;99.90;;;;;;5066560;28;20048;-73
2021/08/04 13:01:40;;;;;;;1.10;0.40;;;25.70;99.90;;;;;;5065042;28;20028;-73